CheckWX is a tool to help pilots better visualize weather data.  It is not intended as a substitute for an official pre-flight weather briefing.

00:52:41 UTC

KMSP METAR
Minneapolis-St Paul International / Wold-Chamberlain Airport
Minneapolis, Minnesota, USA
Current

60 mins ago

KMSP 232353Z 16007KT 10SM BKN250 09/M02 A3013 RMK AO2 SLP209 T00941017 10122 20089 56008
Observed
Mar-23 @ 23:53 UTC
Wind
  • 160° at 7 KTS
Visibility
10 SM
Flight Rules
VFR
Cloud Levels
  • Broken at 25,000' AGL
Temperature
C / 48°F
Dewpoint
-2°C / 28°F
Humidity
46%
Altimeter
30.13" Hg
Pressure
1020.9 hPa
Previous

2 hours ago

KMSP 232253Z 18006KT 10SM BKN250 12/M04 A3013 RMK AO2 SLP209 T01171039
Observed
Mar-23 @ 22:53 UTC
Wind
  • 180° at 6 KTS
Visibility
10 SM
Flight Rules
VFR
Cloud Levels
  • Broken at 25,000' AGL
Temperature
12°C / 54°F
Dewpoint
-4°C / 25°F
Humidity
33%
Altimeter
30.13" Hg
Pressure
1020.9 hPa
Previous

3 hours ago

KMSP 232153Z 18006KT 10SM BKN250 12/M05 A3013 RMK AO2 SLP211 T01171050
Observed
Mar-23 @ 21:53 UTC
Wind
  • 180° at 6 KTS
Visibility
10 SM
Flight Rules
VFR
Cloud Levels
  • Broken at 25,000' AGL
Temperature
12°C / 54°F
Dewpoint
-5°C / 23°F
Humidity
30%
Altimeter
30.13" Hg
Pressure
1021.1 hPa